createdAt,value
2024-02-19T00:02:37.475Z,3.50
2024-02-19T00:05:25.342Z,3.63
2024-02-19T00:08:14.341Z,3.30
2024-02-19T00:11:02.307Z,3.97
2024-02-19T00:13:50.215Z,3.00
2024-02-19T00:16:39.297Z,2.60
2024-02-19T00:19:28.903Z,2.97
2024-02-19T00:22:16.516Z,2.77
2024-02-19T00:25:05.976Z,2.60
2024-02-19T00:27:53.471Z,2.97
2024-02-19T00:30:41.046Z,2.60
2024-02-19T00:33:28.417Z,2.50
2024-02-19T00:36:16.142Z,2.57
2024-02-19T00:39:03.843Z,2.30
2024-02-19T00:41:52.424Z,2.60
2024-02-19T00:44:40.078Z,2.07
2024-02-19T00:47:27.361Z,2.93
2024-02-19T00:50:15.225Z,2.10
2024-02-19T00:53:02.405Z,1.97
2024-02-19T00:55:53.736Z,2.20
2024-02-19T00:58:42.641Z,1.97
2024-02-19T01:01:30.280Z,1.90
2024-02-19T01:04:17.564Z,2.20
2024-02-19T01:07:05.427Z,1.50
2024-02-19T01:09:52.935Z,1.47
2024-02-19T01:12:40.227Z,1.03
2024-02-19T01:15:29.307Z,1.10
2024-02-19T01:18:18.342Z,1.20
2024-02-19T01:21:06.080Z,1.10
2024-02-19T01:23:53.337Z,1.00
2024-02-19T01:26:41.004Z,1.00
2024-02-19T01:29:28.616Z,0.83
2024-02-19T01:32:17.326Z,1.00
2024-02-19T01:35:07.207Z,1.00
2024-02-19T01:37:54.697Z,0.80
2024-02-19T01:40:42.387Z,0.60
2024-02-19T01:43:30.007Z,0.60
2024-02-19T01:46:18.395Z,0.77
2024-02-19T01:49:09.463Z,0.60
2024-02-19T01:51:57.353Z,0.60
2024-02-19T01:54:45.405Z,0.70
2024-02-19T01:57:33.150Z,0.60
2024-02-19T02:00:21.513Z,0.50
2024-02-19T02:03:11.825Z,0.70
2024-02-19T02:06:00.850Z,0.90
2024-02-19T02:08:48.476Z,0.60
2024-02-19T02:11:36.021Z,0.57
2024-02-19T02:14:24.032Z,0.57
2024-02-19T02:17:11.317Z,0.50
2024-02-19T02:19:59.407Z,0.50
2024-02-19T02:22:49.634Z,0.70
2024-02-19T02:25:36.879Z,0.40
2024-02-19T02:28:26.197Z,0.50
2024-02-19T02:31:13.601Z,0.50
2024-02-19T02:34:01.581Z,0.50
2024-02-19T02:36:49.082Z,0.40
2024-02-19T02:39:37.079Z,0.50
2024-02-19T02:42:24.329Z,0.50
2024-02-19T02:45:13.688Z,0.50
2024-02-19T02:48:01.053Z,0.60
2024-02-19T02:50:48.871Z,0.40
2024-02-19T02:53:36.416Z,0.50
2024-02-19T02:56:24.271Z,0.60
2024-02-19T02:59:11.816Z,0.67
2024-02-19T03:02:00.926Z,0.47
2024-02-19T03:04:48.723Z,0.50
2024-02-19T03:07:36.230Z,0.50
2024-02-19T03:10:24.167Z,0.40
2024-02-19T03:13:12.332Z,0.60
2024-02-19T03:16:00.674Z,0.67
2024-02-19T03:18:50.493Z,0.40
2024-02-19T03:21:38.268Z,0.60
2024-02-19T03:24:27.015Z,0.60
2024-02-19T03:27:15.574Z,0.50
2024-02-19T03:30:03.425Z,0.53
2024-02-19T03:32:51.078Z,0.50
2024-02-19T03:35:40.016Z,0.50
2024-02-19T03:38:27.295Z,0.50
2024-02-19T03:41:15.313Z,0.50
2024-02-19T03:44:02.976Z,0.60
2024-02-19T03:46:50.285Z,0.53
2024-02-19T03:49:37.918Z,0.70
2024-02-19T03:52:26.538Z,0.60
2024-02-19T03:55:14.410Z,0.60
2024-02-19T03:58:01.914Z,0.70
2024-02-19T04:00:49.984Z,0.70
2024-02-19T04:03:37.354Z,0.63
2024-02-19T04:06:25.198Z,0.70
2024-02-19T04:09:13.921Z,0.50
2024-02-19T04:12:03.183Z,0.60
2024-02-19T04:14:50.767Z,0.63
2024-02-19T04:17:38.510Z,0.60
2024-02-19T04:20:25.733Z,0.70
2024-02-19T04:23:13.514Z,0.70
2024-02-19T04:26:02.377Z,0.60
2024-02-19T04:28:50.865Z,0.80
2024-02-19T04:31:38.579Z,0.90
2024-02-19T04:34:28.088Z,0.63
2024-02-19T04:37:16.018Z,0.80
2024-02-19T04:40:04.307Z,0.70
2024-02-19T04:42:53.278Z,0.57
2024-02-19T04:45:40.865Z,0.80
2024-02-19T04:48:28.425Z,0.90
2024-02-19T04:51:16.017Z,0.80
2024-02-19T04:54:04.092Z,1.03
2024-02-19T04:56:51.831Z,0.90
2024-02-19T04:59:40.476Z,1.03
2024-02-19T05:02:28.259Z,0.87
2024-02-19T05:05:15.685Z,1.10
2024-02-19T05:08:04.661Z,1.20
2024-02-19T05:10:52.237Z,1.10
2024-02-19T05:13:39.617Z,1.10
2024-02-19T05:16:28.735Z,0.80
2024-02-19T05:19:16.106Z,0.87
2024-02-19T05:22:04.559Z,1.10
2024-02-19T05:24:52.789Z,0.90
2024-02-19T05:27:40.391Z,1.10
2024-02-19T05:30:27.674Z,1.10
2024-02-19T05:33:20.494Z,1.10
2024-02-19T05:36:12.092Z,1.53
2024-02-19T05:38:59.868Z,1.27
2024-02-19T05:41:47.660Z,1.10
2024-02-19T05:44:35.064Z,1.60
2024-02-19T05:47:22.931Z,1.40
2024-02-19T05:50:12.080Z,1.50
2024-02-19T05:52:59.625Z,1.40
2024-02-19T05:55:47.383Z,1.40
2024-02-19T05:58:35.265Z,1.23
2024-02-19T06:01:22.736Z,1.57
2024-02-19T06:04:10.924Z,1.40
2024-02-19T06:07:01.456Z,1.40
2024-02-19T06:09:49.224Z,1.60
2024-02-19T06:12:36.854Z,1.47
2024-02-19T06:15:25.950Z,1.50
2024-02-19T06:18:13.531Z,1.50
2024-02-19T06:21:01.319Z,1.70
2024-02-19T06:23:49.962Z,1.60
2024-02-19T06:26:37.904Z,1.43
2024-02-19T06:29:25.700Z,1.53
2024-02-19T06:32:13.073Z,1.70
2024-02-19T06:35:00.587Z,1.67
2024-02-19T06:37:49.970Z,1.80
2024-02-19T06:40:38.942Z,1.37
2024-02-19T06:43:26.387Z,1.57
2024-02-19T06:46:16.291Z,1.43
2024-02-19T06:49:03.605Z,1.43
2024-02-19T06:51:51.502Z,1.40
2024-02-19T06:54:39.282Z,1.40
2024-02-19T06:57:27.902Z,1.10
2024-02-19T07:00:15.968Z,1.27
2024-02-19T07:03:03.536Z,1.20
2024-02-19T07:05:51.301Z,1.40
2024-02-19T07:08:38.875Z,1.20
2024-02-19T07:11:26.646Z,1.10
2024-02-19T07:14:15.553Z,1.17
2024-02-19T07:17:03.736Z,1.10
2024-02-19T07:19:51.567Z,1.20
2024-02-19T07:22:39.612Z,0.80
2024-02-19T07:25:26.926Z,1.30
2024-02-19T07:28:14.737Z,0.90
2024-02-19T07:31:03.764Z,0.97
2024-02-19T07:33:51.345Z,1.00
2024-02-19T07:36:39.622Z,0.93
2024-02-19T07:39:27.612Z,0.90
2024-02-19T07:42:15.125Z,1.10
2024-02-19T07:45:03.125Z,0.90
2024-02-19T07:47:52.334Z,1.10
2024-02-19T07:50:39.910Z,1.13
2024-02-19T07:53:27.189Z,1.07
2024-02-19T07:56:15.002Z,1.23
2024-02-19T07:59:02.312Z,1.27
2024-02-19T08:01:50.135Z,1.63
2024-02-19T08:04:39.501Z,1.83
2024-02-19T08:07:27.065Z,1.30
2024-02-19T08:10:14.775Z,1.60
2024-02-19T08:13:02.428Z,1.60
2024-02-19T08:15:50.143Z,1.67
2024-02-19T08:18:37.756Z,1.57
2024-02-19T08:21:26.915Z,1.50
2024-02-19T08:24:16.072Z,1.77
2024-02-19T08:27:03.364Z,1.80
2024-02-19T08:29:51.119Z,1.57
2024-02-19T08:32:38.825Z,1.80
2024-02-19T08:35:26.514Z,1.70
2024-02-19T08:38:15.272Z,1.50
2024-02-19T08:41:03.126Z,1.37
2024-02-19T08:43:51.884Z,1.50
2024-02-19T08:46:39.192Z,1.50
2024-02-19T08:49:27.346Z,1.30
2024-02-19T08:52:15.602Z,1.50
2024-02-19T08:55:05.085Z,1.60
2024-02-19T08:57:52.368Z,1.60
2024-02-19T09:00:40.189Z,1.57
2024-02-19T09:03:27.663Z,1.57
2024-02-19T09:06:15.701Z,1.90
2024-02-19T09:09:04.504Z,1.60
2024-02-19T09:11:53.131Z,1.87
2024-02-19T09:14:41.013Z,1.87
2024-02-19T09:17:28.541Z,1.97
2024-02-19T09:20:18.025Z,1.83
2024-02-19T09:23:06.091Z,1.70
2024-02-19T09:25:53.320Z,2.27
2024-02-19T09:28:42.543Z,1.70
2024-02-19T09:31:30.174Z,1.77
2024-02-19T09:34:17.944Z,1.53
2024-02-19T09:37:05.921Z,1.60
2024-02-19T09:39:59.531Z,1.80
2024-02-19T09:42:48.976Z,1.37
2024-02-19T09:45:38.353Z,1.10
2024-02-19T09:48:27.061Z,1.43
2024-02-19T09:51:29.339Z,1.20
2024-02-19T09:54:23.260Z,1.20
2024-02-19T09:57:11.695Z,1.10
2024-02-19T10:00:04.753Z,1.27
2024-02-19T10:02:55.828Z,1.10
2024-02-19T10:05:43.488Z,1.03
2024-02-19T10:08:30.977Z,1.30
2024-02-19T10:11:18.328Z,1.33
2024-02-19T10:14:06.331Z,1.20
2024-02-19T10:16:54.763Z,0.97
2024-02-19T10:19:43.733Z,1.00
2024-02-19T10:22:31.244Z,0.93
2024-02-19T10:25:19.209Z,0.93
2024-02-19T10:28:10.053Z,0.80
2024-02-19T10:30:57.572Z,1.40
2024-02-19T10:33:46.245Z,0.90
2024-02-19T10:36:35.955Z,0.93
2024-02-19T10:39:23.721Z,0.80
2024-02-19T10:42:11.620Z,0.90
2024-02-19T10:44:59.909Z,1.20
2024-02-19T10:47:48.058Z,1.23
2024-02-19T10:50:35.356Z,1.00
2024-02-19T10:53:29.340Z,1.00
2024-02-19T10:56:20.797Z,1.00
2024-02-19T10:59:09.228Z,1.40
2024-02-19T11:02:08.811Z,1.10
2024-02-19T11:04:59.509Z,0.93
2024-02-19T11:07:48.661Z,1.10
2024-02-19T11:10:42.301Z,1.50
2024-02-19T11:13:30.114Z,1.63
2024-02-19T11:16:18.977Z,1.20
2024-02-19T11:19:06.462Z,1.20
2024-02-19T11:22:02.982Z,1.17
2024-02-19T11:24:52.338Z,1.00
2024-02-19T11:27:42.028Z,1.07
2024-02-19T11:30:31.628Z,1.20
2024-02-19T11:33:20.756Z,1.40
2024-02-19T11:36:09.051Z,1.17
2024-02-19T11:38:57.285Z,1.60
2024-02-19T11:41:45.042Z,1.40
2024-02-19T11:44:34.480Z,1.20
2024-02-19T11:47:22.061Z,1.30
2024-02-19T11:50:18.042Z,1.10
2024-02-19T11:53:05.689Z,1.40
2024-02-19T11:56:00.378Z,0.90
2024-02-19T11:58:50.227Z,1.40
2024-02-19T12:01:40.291Z,1.27
2024-02-19T12:04:27.761Z,1.43
2024-02-19T12:07:15.110Z,1.60
2024-02-19T12:10:02.999Z,1.27
2024-02-19T12:12:51.179Z,1.30
2024-02-19T12:15:49.728Z,1.50
2024-02-19T12:18:38.515Z,1.10
2024-02-19T12:21:27.227Z,1.30
2024-02-19T12:24:15.320Z,1.20
2024-02-19T12:27:03.068Z,1.10
2024-02-19T12:29:53.613Z,1.77
2024-02-19T12:32:41.412Z,1.17
2024-02-19T12:35:30.419Z,1.13
2024-02-19T12:38:17.787Z,1.00
2024-02-19T12:41:06.068Z,0.87
2024-02-19T12:43:53.330Z,1.20
2024-02-19T12:46:41.942Z,1.00
2024-02-19T12:49:29.443Z,0.93
2024-02-19T12:52:24.296Z,0.80
2024-02-19T12:55:14.956Z,0.87
2024-02-19T12:58:04.359Z,1.07
2024-02-19T13:00:52.138Z,0.90
2024-02-19T13:03:40.814Z,0.67
2024-02-19T13:06:28.269Z,1.00
2024-02-19T13:09:17.464Z,0.87
2024-02-19T13:12:06.591Z,1.30
2024-02-19T13:14:54.736Z,0.80
2024-02-19T13:17:46.703Z,0.90
2024-02-19T13:20:34.528Z,1.07
2024-02-19T13:23:22.237Z,1.10
2024-02-19T13:26:11.754Z,0.80
2024-02-19T13:28:58.984Z,1.00
2024-02-19T13:31:46.767Z,0.73
2024-02-19T13:34:34.574Z,1.10
2024-02-19T13:37:22.912Z,0.83
2024-02-19T13:40:12.241Z,0.80
2024-02-19T13:43:01.781Z,0.70
2024-02-19T13:46:01.079Z,0.70
2024-02-19T13:49:00.633Z,0.80
2024-02-19T13:51:49.301Z,1.07
2024-02-19T13:54:36.756Z,0.80
2024-02-19T13:57:24.215Z,0.90
2024-02-19T14:00:14.052Z,0.70
2024-02-19T14:03:01.589Z,0.80
2024-02-19T14:05:49.342Z,1.17
2024-02-19T14:08:36.733Z,0.80
2024-02-19T14:11:24.008Z,0.93
2024-02-19T14:14:11.560Z,0.73
2024-02-19T14:17:00.411Z,0.70
2024-02-19T14:19:47.779Z,0.83
2024-02-19T14:22:36.320Z,0.73
2024-02-19T14:25:23.914Z,0.80
2024-02-19T14:28:11.752Z,0.97
2024-02-19T14:30:59.002Z,1.00
2024-02-19T14:33:48.844Z,0.80
2024-02-19T14:36:36.802Z,1.27
2024-02-19T14:39:26.007Z,0.87
2024-02-19T14:42:13.801Z,1.00
2024-02-19T14:45:01.040Z,0.80
2024-02-19T14:47:49.180Z,0.67
2024-02-19T14:50:38.791Z,1.10
2024-02-19T14:53:26.340Z,0.83
2024-02-19T14:56:13.901Z,0.80
2024-02-19T14:59:01.454Z,0.83
2024-02-19T15:01:49.197Z,1.00
2024-02-19T15:04:36.666Z,1.03
2024-02-19T15:07:25.953Z,1.67
2024-02-19T15:10:16.498Z,1.10
2024-02-19T15:13:04.052Z,0.80
2024-02-19T15:15:51.944Z,1.00
2024-02-19T15:18:40.225Z,1.30
2024-02-19T15:21:27.598Z,1.20
2024-02-19T15:24:16.591Z,1.20
2024-02-19T15:27:04.244Z,1.20
2024-02-19T15:29:51.772Z,1.30
2024-02-19T15:32:39.049Z,1.60
2024-02-19T15:35:28.269Z,1.10
2024-02-19T15:38:16.009Z,1.23
2024-02-19T15:41:10.810Z,1.20
2024-02-19T15:44:05.270Z,1.10
2024-02-19T15:46:53.471Z,0.87
2024-02-19T15:49:41.651Z,1.20
2024-02-19T15:52:30.820Z,1.10
2024-02-19T15:55:18.277Z,1.00
2024-02-19T15:58:07.343Z,1.17
2024-02-19T16:00:54.728Z,1.00
2024-02-19T16:03:42.492Z,1.17
2024-02-19T16:06:32.579Z,1.07
2024-02-19T16:09:19.874Z,1.10
2024-02-19T16:12:08.377Z,0.90
2024-02-19T16:14:57.320Z,1.10
2024-02-19T16:17:44.880Z,1.10
2024-02-19T16:20:32.176Z,1.40
2024-02-19T16:23:19.850Z,1.30
2024-02-19T16:26:08.895Z,1.67
2024-02-19T16:28:56.832Z,1.33
2024-02-19T16:31:45.941Z,1.53
2024-02-19T16:34:34.556Z,1.33
2024-02-19T16:37:22.170Z,1.70
2024-02-19T16:40:10.409Z,1.57
2024-02-19T16:42:58.427Z,1.70
2024-02-19T16:45:45.715Z,1.33
2024-02-19T16:48:43.126Z,1.17
2024-02-19T16:51:30.608Z,1.10
2024-02-19T16:54:21.454Z,1.10
2024-02-19T16:57:08.831Z,1.17
2024-02-19T16:59:56.269Z,1.30
2024-02-19T17:02:44.470Z,1.23
2024-02-19T17:05:33.553Z,1.10
2024-02-19T17:08:24.374Z,1.50
2024-02-19T17:11:11.749Z,1.63
2024-02-19T17:14:02.746Z,1.77
2024-02-19T17:16:53.737Z,2.00
2024-02-19T17:19:41.584Z,1.97
2024-02-19T17:22:30.576Z,1.70
2024-02-19T17:25:18.012Z,1.70
2024-02-19T17:28:06.272Z,1.60
2024-02-19T17:30:54.232Z,1.70
2024-02-19T17:33:42.163Z,1.70
2024-02-19T17:36:29.478Z,2.10
2024-02-19T17:39:19.813Z,2.33
2024-02-19T17:42:07.174Z,2.00
2024-02-19T17:44:54.991Z,2.37
2024-02-19T17:47:42.653Z,2.37
2024-02-19T17:50:30.380Z,2.23
2024-02-19T17:53:18.091Z,2.47
2024-02-19T17:56:07.532Z,2.23
2024-02-19T17:58:55.364Z,1.90
2024-02-19T18:01:43.882Z,1.80
2024-02-19T18:04:31.750Z,1.90
2024-02-19T18:07:19.468Z,1.63
2024-02-19T18:10:09.235Z,1.40
2024-02-19T18:12:58.040Z,1.60
2024-02-19T18:15:45.735Z,1.20
2024-02-19T18:18:34.435Z,1.60
2024-02-19T18:21:22.323Z,1.87
2024-02-19T18:24:09.866Z,1.80
2024-02-19T18:26:57.208Z,1.40
2024-02-19T18:29:45.887Z,1.57
2024-02-19T18:32:35.848Z,1.57
2024-02-19T18:35:23.663Z,1.60
2024-02-19T18:38:13.320Z,1.30
2024-02-19T18:41:02.469Z,1.80
2024-02-19T18:43:49.698Z,1.70
2024-02-19T18:46:38.515Z,1.87
2024-02-19T18:49:27.042Z,1.87
2024-02-19T18:52:14.829Z,2.43
2024-02-19T18:55:02.723Z,2.10
2024-02-19T18:57:50.339Z,2.53
2024-02-19T19:00:37.888Z,2.20
2024-02-19T19:03:28.504Z,1.93
2024-02-19T19:06:16.283Z,1.63
2024-02-19T19:09:07.172Z,2.17
2024-02-19T19:11:54.459Z,2.10
2024-02-19T19:14:41.823Z,1.70
2024-02-19T19:17:29.206Z,2.37
2024-02-19T19:20:18.632Z,2.20
2024-02-19T19:23:06.920Z,2.17
2024-02-19T19:25:54.167Z,1.90
2024-02-19T19:28:41.632Z,2.33
2024-02-19T19:31:29.148Z,2.20
2024-02-19T19:34:16.795Z,3.07
2024-02-19T19:37:06.109Z,3.20
2024-02-19T19:39:53.934Z,2.90
2024-02-19T19:42:47.083Z,2.17
2024-02-19T19:45:34.532Z,2.10
2024-02-19T19:48:27.003Z,2.30
2024-02-19T19:51:14.622Z,2.00
2024-02-19T19:54:03.945Z,2.23
2024-02-19T19:56:51.585Z,2.07
2024-02-19T19:59:42.928Z,1.93
2024-02-19T20:02:30.397Z,1.83
2024-02-19T20:05:17.789Z,1.60
2024-02-19T20:08:06.380Z,2.40
2024-02-19T20:10:55.475Z,2.47
2024-02-19T20:13:42.849Z,2.10
2024-02-19T20:16:30.775Z,2.23
2024-02-19T20:19:18.277Z,2.30
2024-02-19T20:22:06.058Z,2.43
2024-02-19T20:24:53.335Z,2.93
2024-02-19T20:27:43.766Z,2.50
2024-02-19T20:30:31.585Z,4.13
2024-02-19T20:33:19.156Z,2.47
2024-02-19T20:36:07.413Z,2.50
2024-02-19T20:38:56.168Z,2.83
2024-02-19T20:41:43.998Z,2.90
2024-02-19T20:44:33.343Z,2.23
2024-02-19T20:47:20.623Z,2.60
2024-02-19T20:50:10.824Z,2.57
2024-02-19T20:52:58.143Z,2.67
2024-02-19T20:55:46.304Z,2.73
2024-02-19T20:58:33.662Z,2.70
2024-02-19T21:01:22.572Z,2.40
2024-02-19T21:04:10.394Z,2.53
2024-02-19T21:06:58.230Z,2.80
2024-02-19T21:09:45.607Z,2.83
2024-02-19T21:12:33.358Z,2.93
2024-02-19T21:15:22.560Z,2.80
2024-02-19T21:18:13.565Z,2.73
2024-02-19T21:21:01.019Z,3.00
2024-02-19T21:23:48.266Z,3.20
2024-02-19T21:26:35.909Z,2.77
2024-02-19T21:29:27.201Z,2.73
2024-02-19T21:32:15.242Z,2.93
2024-02-19T21:35:08.215Z,2.70
2024-02-19T21:37:57.774Z,2.67
2024-02-19T21:40:45.516Z,2.70
2024-02-19T21:43:32.744Z,3.63
2024-02-19T21:46:20.510Z,3.47
2024-02-19T21:49:07.862Z,2.97
2024-02-19T21:51:57.123Z,2.73
2024-02-19T21:54:46.322Z,3.00
2024-02-19T21:57:37.197Z,2.70
2024-02-19T22:00:24.423Z,2.63
2024-02-19T22:03:12.102Z,2.80
2024-02-19T22:05:59.881Z,2.53
2024-02-19T22:08:48.562Z,2.67
2024-02-19T22:11:37.042Z,2.90
2024-02-19T22:14:24.326Z,2.57
2024-02-19T22:17:12.097Z,2.73
2024-02-19T22:19:59.694Z,3.13
2024-02-19T22:22:47.614Z,3.23
2024-02-19T22:25:36.325Z,2.77
2024-02-19T22:28:24.111Z,3.20
2024-02-19T22:31:11.670Z,2.77
2024-02-19T22:33:59.147Z,2.97
2024-02-19T22:36:47.120Z,2.57
2024-02-19T22:39:34.408Z,2.80
2024-02-19T22:42:23.391Z,2.67
2024-02-19T22:45:10.768Z,2.77
2024-02-19T22:47:58.747Z,3.10
2024-02-19T22:50:46.233Z,2.37
2024-02-19T22:53:33.747Z,2.50
2024-02-19T22:56:21.274Z,2.77
2024-02-19T22:59:18.821Z,2.97
2024-02-19T23:02:09.998Z,2.63
2024-02-19T23:04:57.815Z,2.63
2024-02-19T23:07:45.236Z,2.53
2024-02-19T23:10:33.692Z,2.77
2024-02-19T23:13:21.447Z,3.03
2024-02-19T23:16:11.034Z,2.80
2024-02-19T23:18:58.734Z,3.17
2024-02-19T23:21:46.747Z,2.67
2024-02-19T23:24:34.025Z,2.67
2024-02-19T23:27:24.049Z,2.60
2024-02-19T23:30:13.105Z,2.90
2024-02-19T23:33:01.860Z,2.60
2024-02-19T23:35:49.881Z,2.57
2024-02-19T23:38:37.159Z,2.40
2024-02-19T23:41:24.979Z,2.77
2024-02-19T23:44:12.855Z,2.23
2024-02-19T23:47:00.575Z,2.93
2024-02-19T23:49:49.306Z,2.43
2024-02-19T23:52:38.805Z,2.70
2024-02-19T23:55:26.393Z,2.63
2024-02-19T23:58:13.828Z,2.73
